Terminal Aerodrome Forecast
Issued by NWS

Home | Current Version | Previous Version | Text Only | Print | Product List | Glossary On
Versions: 1 2 3 4 5 6 7 8 9 10 11 12 13 14 15 16 17 18 19 20 21 22 23 24 25 26 27 28 29 30 31 32 33 34 35 36 37 38 39 40 41 42 43 44 45 46 47 48 49 50
186
FTUS41 KCTP 232339
TAFAOO
TAF
KAOO 232339Z 2400/2424 15018G28KT P6SM -SHRA BKN035 WS020/15045KT
     FM240100 15015KT P6SM -RA OVC025 WS020/16055KT
      TEMPO 2403/2405 20025G40KT 5SM +RA BR OVC010
     FM240600 22012G20KT 5SM -SHRA OVC015
     FM241100 24012KT P6SM VCSH OVC025
     FM241400 21010KT P6SM BKN050=

USA.gov is the U.S. government's official web portal to all federal, state and local government web resources and services.